Time;durP1;ratioP1;P1;durP2;ratioP2;P2;SDS_P1;SDS_P2;PMS_P1;PMS_P2;Temp;Humidity;BMP_temperature;BMP_pressure;BME280_temperature;BME280_humidity;BME280_pressure;Samples;Min_cycle;Max_cycle;Signal;HPM_P1;HPM_P2
2021/11/23 00:00:19;;;;;;;23.52;7.20;;;3.00;73.20;;;;;;5072483;28;20035;-75
2021/11/23 00:02:45;;;;;;;19.77;6.15;;;3.00;73.30;;;;;;5077987;28;20030;-75
2021/11/23 00:05:12;;;;;;;18.58;5.90;;;3.00;73.50;;;;;;5076392;28;20047;-75
2021/11/23 00:07:38;;;;;;;36.55;6.55;;;3.00;73.40;;;;;;5078205;28;20077;-75
2021/11/23 00:10:05;;;;;;;23.98;6.32;;;3.00;73.50;;;;;;5077555;28;20103;-76
2021/11/23 00:12:33;;;;;;;13.13;5.45;;;2.90;73.50;;;;;;5076285;28;20418;-76
2021/11/23 00:14:59;;;;;;;17.35;5.13;;;2.90;73.50;;;;;;5071941;28;20035;-76
2021/11/23 00:17:24;;;;;;;13.73;5.43;;;2.90;73.60;;;;;;5076396;28;20483;-75
2021/11/23 00:19:50;;;;;;;12.07;4.57;;;2.80;73.70;;;;;;5077939;28;20052;-75
2021/11/23 00:22:16;;;;;;;13.65;4.32;;;2.80;73.70;;;;;;5071681;28;20020;-75
2021/11/23 00:24:42;;;;;;;10.82;4.43;;;2.80;73.70;;;;;;5086581;28;20120;-75
2021/11/23 00:27:08;;;;;;;13.48;4.00;;;2.70;73.60;;;;;;5077545;28;20391;-75
2021/11/23 00:29:34;;;;;;;11.98;4.07;;;2.70;73.60;;;;;;5076405;28;20549;-76
2021/11/23 00:32:00;;;;;;;13.25;5.15;;;2.70;73.70;;;;;;5077627;28;20107;-75
2021/11/23 00:34:27;;;;;;;13.07;4.35;;;2.70;73.70;;;;;;5076281;28;20033;-76
2021/11/23 00:36:53;;;;;;;14.75;5.35;;;2.60;73.60;;;;;;5077349;28;20033;-76
2021/11/23 00:39:19;;;;;;;9.93;4.22;;;2.60;73.60;;;;;;5077303;28;20032;-75
2021/11/23 00:41:48;;;;;;;11.88;4.55;;;2.50;73.60;;;;;;5075951;28;20070;-75
2021/11/23 00:44:19;;;;;;;11.10;4.40;;;2.50;74.00;;;;;;5075910;28;20025;-75
2021/11/23 00:46:45;;;;;;;13.07;4.95;;;2.50;74.00;;;;;;5059067;28;20025;-75
2021/11/23 00:49:13;;;;;;;9.38;4.45;;;2.50;74.10;;;;;;5077152;28;20029;-75
2021/11/23 00:51:39;;;;;;;11.50;4.65;;;2.40;74.00;;;;;;5077459;28;20053;-76
2021/11/23 00:54:05;;;;;;;11.73;4.80;;;2.40;74.10;;;;;;5075668;28;20029;-75
2021/11/23 00:56:31;;;;;;;10.32;4.60;;;2.40;74.20;;;;;;5077336;28;20031;-75
2021/11/23 00:58:57;;;;;;;11.40;4.55;;;2.40;74.40;;;;;;5077219;28;20055;-76
2021/11/23 01:01:23;;;;;;;12.25;4.40;;;2.40;74.30;;;;;;5077349;28;20483;-75
2021/11/23 01:03:49;;;;;;;10.38;4.25;;;2.40;74.50;;;;;;5077146;28;20084;-76
2021/11/23 01:06:15;;;;;;;15.95;5.30;;;2.40;74.50;;;;;;5077365;28;20016;-75
2021/11/23 01:08:41;;;;;;;11.30;4.10;;;2.40;74.50;;;;;;5077073;28;20063;-75
2021/11/23 01:11:12;;;;;;;9.90;4.68;;;2.30;74.50;;;;;;5077216;28;20932;-75
2021/11/23 01:13:39;;;;;;;11.98;4.95;;;2.40;74.90;;;;;;5073935;28;20020;-75
2021/11/23 01:16:06;;;;;;;10.60;4.60;;;2.30;74.90;;;;;;5066055;28;20099;-75
2021/11/23 01:18:32;;;;;;;11.75;4.57;;;2.40;75.00;;;;;;5077040;28;20021;-75
2021/11/23 01:21:00;;;;;;;11.63;4.65;;;2.30;75.00;;;;;;5077083;28;20023;-75
2021/11/23 01:23:27;;;;;;;10.30;4.95;;;2.30;75.10;;;;;;5075981;28;20032;-75
2021/11/23 01:25:53;;;;;;;10.57;4.57;;;2.40;75.10;;;;;;5076656;28;20044;-76
2021/11/23 01:28:20;;;;;;;10.75;4.30;;;2.40;75.30;;;;;;5077296;28;20475;-75
2021/11/23 01:30:46;;;;;;;15.65;4.25;;;2.40;75.40;;;;;;5077005;28;20051;-76
2021/11/23 01:33:12;;;;;;;16.00;4.90;;;2.30;75.20;;;;;;5075473;28;20503;-75
2021/11/23 01:35:38;;;;;;;9.57;4.03;;;2.30;75.30;;;;;;5075924;28;20029;-76
2021/11/23 01:38:04;;;;;;;10.40;4.57;;;2.30;75.30;;;;;;5075418;28;20079;-75
2021/11/23 01:40:30;;;;;;;15.55;4.78;;;2.30;75.40;;;;;;5075373;28;20021;-76
2021/11/23 01:42:56;;;;;;;16.70;6.07;;;2.30;75.50;;;;;;5075648;28;20084;-75
2021/11/23 01:45:23;;;;;;;13.07;4.45;;;2.30;75.50;;;;;;5076803;28;20506;-75
2021/11/23 01:47:48;;;;;;;16.50;4.90;;;2.30;75.60;;;;;;5076992;28;20032;-75
2021/11/23 01:50:15;;;;;;;11.35;3.85;;;2.30;75.70;;;;;;5076894;28;20025;-75
2021/11/23 01:52:44;;;;;;;11.63;4.13;;;2.30;75.80;;;;;;5075582;28;20029;-75
2021/11/23 01:55:11;;;;;;;12.10;4.35;;;2.30;75.60;;;;;;5075597;28;20043;-75
2021/11/23 01:57:37;;;;;;;9.75;4.72;;;2.30;75.70;;;;;;5078904;28;20386;-75
2021/11/23 02:00:08;;;;;;;20.75;4.88;;;2.20;75.60;;;;;;5079393;28;20029;-75
2021/11/23 02:02:34;;;;;;;12.77;4.65;;;2.20;75.60;;;;;;5078836;28;20473;-75
2021/11/23 02:05:00;;;;;;;14.63;6.68;;;2.20;75.60;;;;;;5079023;28;20060;-75
2021/11/23 02:07:26;;;;;;;9.40;4.30;;;2.20;75.70;;;;;;5080086;28;20035;-75
2021/11/23 02:09:52;;;;;;;17.08;4.70;;;2.20;75.80;;;;;;5080076;28;20546;-75
2021/11/23 02:12:19;;;;;;;8.77;4.00;;;2.10;76.00;;;;;;5078481;28;20044;-76
2021/11/23 02:14:44;;;;;;;14.27;5.60;;;2.10;76.00;;;;;;5067536;28;20032;-75
2021/11/23 02:17:10;;;;;;;14.52;5.22;;;2.10;76.00;;;;;;5077803;28;20012;-75
2021/11/23 02:19:36;;;;;;;13.27;4.57;;;2.10;76.10;;;;;;5080156;28;20099;-75
2021/11/23 02:22:02;;;;;;;10.15;4.43;;;2.20;76.50;;;;;;5074880;28;20040;-75
2021/11/23 02:24:28;;;;;;;17.70;5.63;;;2.10;76.20;;;;;;5071362;28;20025;-75
2021/11/23 02:26:54;;;;;;;14.48;4.75;;;2.10;76.00;;;;;;5079423;28;20515;-76
2021/11/23 02:29:20;;;;;;;10.00;4.28;;;2.10;76.00;;;;;;5078859;28;20032;-76
2021/11/23 02:31:46;;;;;;;13.77;5.15;;;2.00;76.10;;;;;;5079653;28;20063;-75
2021/11/23 02:34:12;;;;;;;11.55;4.88;;;2.00;76.30;;;;;;5079836;28;20083;-76
2021/11/23 02:36:39;;;;;;;16.20;5.57;;;2.00;76.50;;;;;;5079427;28;20430;-75
2021/11/23 02:39:06;;;;;;;14.80;5.55;;;2.00;76.50;;;;;;5079750;28;20051;-75
2021/11/23 02:41:32;;;;;;;15.20;5.15;;;2.00;76.50;;;;;;5078088;28;20021;-76
2021/11/23 02:43:58;;;;;;;11.13;5.35;;;2.00;76.60;;;;;;5078630;28;20013;-75
2021/11/23 02:46:24;;;;;;;15.32;5.32;;;2.00;76.40;;;;;;5079378;28;20028;-76
2021/11/23 02:48:50;;;;;;;11.80;5.45;;;1.90;76.20;;;;;;5078414;28;20020;-76
2021/11/23 02:51:17;;;;;;;9.43;4.85;;;1.90;76.60;;;;;;5079667;28;20056;-75
2021/11/23 02:53:48;;;;;;;11.25;4.68;;;1.90;76.90;;;;;;5079280;28;20019;-75
2021/11/23 02:56:15;;;;;;;14.00;5.55;;;1.90;76.70;;;;;;5077701;28;20033;-75
2021/11/23 02:58:46;;;;;;;11.32;4.75;;;1.90;76.50;;;;;;5079269;28;20021;-75
2021/11/23 03:01:13;;;;;;;15.40;5.30;;;1.80;76.20;;;;;;5079177;28;20105;-75
2021/11/23 03:03:39;;;;;;;10.27;5.50;;;1.80;76.60;;;;;;5079120;28;20051;-76
2021/11/23 03:06:05;;;;;;;14.15;4.80;;;1.80;76.60;;;;;;5079288;28;20029;-75
2021/11/23 03:08:33;;;;;;;10.50;5.13;;;1.80;76.40;;;;;;5077319;28;20020;-75
2021/11/23 03:10:59;;;;;;;15.27;4.93;;;1.80;76.50;;;;;;5078742;28;20475;-75
2021/11/23 03:13:25;;;;;;;13.50;5.20;;;1.70;76.40;;;;;;5077262;28;20016;-75
2021/11/23 03:15:51;;;;;;;16.73;5.63;;;1.70;76.60;;;;;;5081689;28;20387;-76
2021/11/23 03:18:17;;;;;;;18.65;5.68;;;1.70;77.20;;;;;;5077702;28;20101;-75
2021/11/23 03:20:44;;;;;;;14.77;6.03;;;1.70;77.20;;;;;;5079041;28;20040;-76
2021/11/23 03:23:11;;;;;;;12.38;5.28;;;1.70;77.00;;;;;;5077519;28;20024;-75
2021/11/23 03:25:37;;;;;;;16.55;5.82;;;1.70;77.00;;;;;;5077454;28;20116;-75
2021/11/23 03:28:04;;;;;;;12.90;5.45;;;1.70;76.80;;;;;;5078754;28;20020;-75
2021/11/23 03:30:31;;;;;;;14.43;6.22;;;1.70;76.80;;;;;;5077431;28;20052;-76
2021/11/23 03:32:59;;;;;;;12.90;5.88;;;1.70;77.50;;;;;;5078416;28;20021;-75
2021/11/23 03:35:27;;;;;;;12.25;5.82;;;1.70;77.70;;;;;;5077252;28;20036;-75
2021/11/23 03:37:54;;;;;;;20.45;6.72;;;1.60;77.30;;;;;;5077083;28;20041;-75
2021/11/23 03:40:23;;;;;;;17.58;6.97;;;1.60;77.50;;;;;;5076970;28;20032;-75
2021/11/23 03:42:50;;;;;;;15.18;6.30;;;1.60;77.50;;;;;;5077070;28;20059;-76
2021/11/23 03:45:17;;;;;;;19.02;8.02;;;1.60;77.70;;;;;;5077291;28;20028;-76
2021/11/23 03:47:43;;;;;;;20.60;7.35;;;1.60;77.80;;;;;;5076848;28;20027;-75
2021/11/23 03:50:11;;;;;;;20.88;7.88;;;1.60;77.90;;;;;;5078358;28;20032;-75
2021/11/23 03:52:38;;;;;;;17.58;7.72;;;1.60;78.10;;;;;;5076735;28;20028;-76
2021/11/23 03:55:06;;;;;;;18.15;7.95;;;1.60;78.10;;;;;;5078259;28;20054;-75
2021/11/23 03:57:32;;;;;;;16.52;7.88;;;1.70;78.80;;;;;;5077598;28;20028;-75
2021/11/23 03:59:58;;;;;;;17.85;7.63;;;1.70;78.80;;;;;;5078494;28;20032;-75
2021/11/23 04:02:25;;;;;;;22.05;7.70;;;1.70;79.00;;;;;;5076789;28;20023;-76
2021/11/23 04:04:52;;;;;;;19.27;8.63;;;1.70;78.80;;;;;;5078118;28;20029;-75
2021/11/23 04:07:18;;;;;;;19.40;8.10;;;1.70;78.70;;;;;;5077938;28;20020;-76
2021/11/23 04:09:45;;;;;;;18.92;8.32;;;1.70;78.70;;;;;;5076822;28;20043;-75
2021/11/23 04:12:13;;;;;;;19.10;7.85;;;1.70;78.70;;;;;;5075979;28;20459;-75
2021/11/23 04:14:40;;;;;;;20.15;7.47;;;1.70;78.70;;;;;;5067391;28;20025;-75
2021/11/23 04:17:07;;;;;;;17.95;7.55;;;1.70;78.50;;;;;;5090375;28;20025;-75
2021/11/23 04:19:33;;;;;;;17.67;7.28;;;1.70;78.80;;;;;;5077444;28;20029;-75
2021/11/23 04:22:00;;;;;;;26.92;9.07;;;1.70;78.80;;;;;;5076080;28;20021;-76
2021/11/23 04:24:26;;;;;;;23.45;9.82;;;1.60;78.60;;;;;;5077879;28;20076;-76
2021/11/23 04:26:52;;;;;;;22.75;8.73;;;1.60;78.80;;;;;;5077304;28;20028;-75
2021/11/23 04:29:18;;;;;;;22.38;8.75;;;1.60;78.70;;;;;;5076330;28;20487;-76
2021/11/23 04:31:44;;;;;;;24.25;9.25;;;1.60;78.80;;;;;;5076347;28;20109;-76
2021/11/23 04:34:10;;;;;;;23.67;9.77;;;1.60;78.90;;;;;;5076388;28;20028;-75
2021/11/23 04:36:36;;;;;;;32.10;11.63;;;1.60;78.90;;;;;;5076210;28;20025;-76
2021/11/23 04:39:03;;;;;;;28.27;10.38;;;1.60;79.00;;;;;;5077504;28;20044;-76
2021/11/23 04:41:29;;;;;;;28.65;10.00;;;1.60;79.10;;;;;;5075957;28;20024;-76
2021/11/23 04:43:55;;;;;;;33.85;11.52;;;1.60;79.00;;;;;;5077609;28;20033;-75
2021/11/23 04:46:21;;;;;;;22.95;11.40;;;1.60;79.30;;;;;;5077303;28;20424;-76
2021/11/23 04:48:48;;;;;;;38.22;14.05;;;1.60;79.40;;;;;;5076333;28;20028;-76
2021/11/23 04:51:14;;;;;;;46.30;14.60;;;1.60;79.50;;;;;;5077149;28;20107;-76
2021/11/23 04:53:40;;;;;;;32.30;11.40;;;1.60;79.50;;;;;;5076102;28;20483;-75
2021/11/23 04:56:06;;;;;;;23.02;10.05;;;1.60;79.40;;;;;;5076880;28;20075;-75
2021/11/23 04:58:33;;;;;;;28.27;11.20;;;1.60;79.70;;;;;;5076012;28;20078;-75
2021/11/23 05:00:59;;;;;;;32.25;9.75;;;1.60;79.70;;;;;;5076224;28;20029;-76
2021/11/23 05:03:25;;;;;;;22.20;9.98;;;1.60;80.00;;;;;;5076192;28;20024;-75
2021/11/23 05:05:52;;;;;;;20.98;10.85;;;1.60;80.00;;;;;;5075964;28;20024;-75
2021/11/23 05:08:18;;;;;;;24.63;10.15;;;1.60;80.00;;;;;;5077225;28;20064;-75
2021/11/23 05:10:44;;;;;;;22.88;9.73;;;1.70;80.00;;;;;;5075881;28;20060;-76
2021/11/23 05:13:09;;;;;;;20.60;9.40;;;1.70;79.90;;;;;;5077070;28;20020;-75
2021/11/23 05:15:36;;;;;;;25.23;11.05;;;1.70;80.40;;;;;;5063637;28;20374;-75
2021/11/23 05:18:01;;;;;;;21.05;9.82;;;1.70;80.10;;;;;;5077226;28;20028;-75
2021/11/23 05:20:27;;;;;;;19.15;8.32;;;1.70;79.80;;;;;;5075913;28;20052;-75
2021/11/23 05:22:53;;;;;;;18.73;9.75;;;1.60;79.30;;;;;;5076105;28;20360;-75
2021/11/23 05:25:19;;;;;;;20.35;9.23;;;1.60;79.50;;;;;;5092403;28;20575;-75
2021/11/23 05:27:45;;;;;;;19.00;8.15;;;1.60;79.40;;;;;;5077096;28;20036;-75
2021/11/23 05:30:12;;;;;;;23.98;9.55;;;1.60;79.60;;;;;;5075830;28;20364;-75
2021/11/23 05:32:41;;;;;;;27.08;9.30;;;1.60;79.40;;;;;;5078832;28;20124;-75
2021/11/23 05:35:08;;;;;;;23.67;9.98;;;1.60;79.70;;;;;;5080771;28;20039;-75
2021/11/23 05:37:34;;;;;;;21.88;9.10;;;1.60;79.70;;;;;;5080952;28;20049;-75
2021/11/23 05:40:00;;;;;;;20.80;9.40;;;1.60;79.80;;;;;;5080725;28;20031;-76
2021/11/23 05:42:26;;;;;;;23.10;10.35;;;1.60;79.70;;;;;;5080583;28;20493;-75
2021/11/23 05:44:52;;;;;;;23.02;9.57;;;1.50;79.70;;;;;;5079441;28;20154;-75
2021/11/23 05:47:18;;;;;;;25.45;9.70;;;1.60;79.60;;;;;;5062480;28;20048;-75
2021/11/23 05:49:44;;;;;;;21.88;9.02;;;1.50;79.40;;;;;;5080789;28;20498;-75
2021/11/23 05:52:10;;;;;;;18.88;8.52;;;1.50;79.70;;;;;;5079442;28;20029;-76
2021/11/23 05:54:36;;;;;;;25.50;9.88;;;1.50;79.60;;;;;;5082653;28;20024;-75
2021/11/23 05:57:02;;;;;;;21.13;10.00;;;1.50;79.40;;;;;;5078988;28;20096;-75
2021/11/23 05:59:28;;;;;;;25.90;9.73;;;1.50;79.20;;;;;;5080516;28;20024;-75
2021/11/23 06:01:54;;;;;;;20.73;9.27;;;1.50;79.20;;;;;;5080207;28;20475;-75
2021/11/23 06:04:19;;;;;;;19.27;8.10;;;1.50;79.00;;;;;;5080126;28;20097;-75
2021/11/23 06:06:45;;;;;;;19.75;9.60;;;1.50;79.00;;;;;;5080558;28;20074;-77
2021/11/23 06:09:12;;;;;;;24.38;9.18;;;1.40;78.80;;;;;;5079204;28;20032;-77
2021/11/23 06:11:38;;;;;;;21.67;9.43;;;1.40;79.00;;;;;;5079924;28;20063;-79
2021/11/23 06:14:04;;;;;;;23.05;9.55;;;1.40;79.10;;;;;;5075652;28;20495;-74
2021/11/23 06:16:31;;;;;;;19.23;9.07;;;1.40;79.30;;;;;;5072542;28;20372;-74
2021/11/23 06:18:57;;;;;;;22.00;10.07;;;1.40;79.30;;;;;;5079948;28;20518;-74
2021/11/23 06:21:25;;;;;;;30.85;10.73;;;1.40;79.50;;;;;;5080128;28;20024;-71
2021/11/23 06:23:52;;;;;;;20.00;10.55;;;1.40;79.60;;;;;;5078642;28;20099;-70
2021/11/23 06:26:19;;;;;;;20.42;9.90;;;1.40;79.60;;;;;;5079874;28;20384;-71
2021/11/23 06:28:45;;;;;;;22.27;9.73;;;1.40;79.60;;;;;;5079891;28;20032;-71
2021/11/23 06:31:11;;;;;;;20.33;10.35;;;1.40;79.40;;;;;;5079833;28;20027;-73
2021/11/23 06:33:37;;;;;;;22.77;10.45;;;1.40;79.20;;;;;;5079916;28;20084;-72
2021/11/23 06:36:03;;;;;;;24.80;10.02;;;1.40;79.30;;;;;;5079991;28;20483;-72
2021/11/23 06:38:29;;;;;;;23.08;9.40;;;1.40;79.40;;;;;;5078234;28;20100;-72
2021/11/23 06:40:54;;;;;;;23.23;10.27;;;1.40;79.60;;;;;;5079362;28;20025;-72
2021/11/23 06:43:20;;;;;;;19.08;9.13;;;1.40;79.60;;;;;;5065207;28;20092;-71
2021/11/23 06:45:46;;;;;;;17.40;7.40;;;1.40;79.50;;;;;;5079730;28;20046;-71
2021/11/23 06:48:12;;;;;;;17.42;7.88;;;1.50;79.60;;;;;;5066407;28;20059;-71
2021/11/23 06:50:41;;;;;;;17.08;8.07;;;1.50;79.50;;;;;;5079474;28;20476;-71
2021/11/23 06:53:09;;;;;;;19.27;8.70;;;1.50;79.30;;;;;;5066384;28;20024;-71
2021/11/23 06:55:36;;;;;;;18.45;7.40;;;1.60;79.30;;;;;;5079147;28;20050;-72
2021/11/23 06:58:02;;;;;;;19.63;8.68;;;1.60;79.10;;;;;;5079448;28;20036;-72
2021/11/23 07:00:29;;;;;;;23.42;8.48;;;1.70;79.20;;;;;;5077906;28;20028;-71
2021/11/23 07:02:55;;;;;;;20.20;8.38;;;1.70;79.20;;;;;;5079340;28;20013;-72
2021/11/23 07:05:21;;;;;;;19.50;9.90;;;1.70;79.10;;;;;;5079131;28;20033;-71
2021/11/23 07:07:47;;;;;;;20.58;9.13;;;1.80;79.00;;;;;;5078910;28;20021;-71
2021/11/23 07:10:14;;;;;;;17.90;8.65;;;1.70;78.80;;;;;;5078418;28;20040;-71
2021/11/23 07:12:40;;;;;;;19.63;8.45;;;1.80;78.80;;;;;;5079030;28;20025;-71
2021/11/23 07:15:07;;;;;;;18.85;8.52;;;1.80;78.90;;;;;;5065477;28;20087;-71
2021/11/23 07:17:33;;;;;;;17.13;8.20;;;1.80;78.90;;;;;;5077551;28;20491;-71
2021/11/23 07:19:59;;;;;;;22.23;8.13;;;1.80;78.80;;;;;;5078814;28;20048;-71
2021/11/23 07:22:25;;;;;;;18.08;8.77;;;1.80;78.80;;;;;;5077663;28;20062;-71
2021/11/23 07:24:51;;;;;;;21.30;10.18;;;1.80;78.90;;;;;;5078746;28;20024;-70
2021/11/23 07:27:18;;;;;;;23.13;9.32;;;1.90;78.90;;;;;;5078584;28;20029;-70
2021/11/23 07:29:45;;;;;;;19.10;10.35;;;1.90;78.90;;;;;;5078736;28;20040;-70
2021/11/23 07:32:11;;;;;;;20.98;10.05;;;1.90;78.80;;;;;;5078491;28;20017;-70
2021/11/23 07:34:40;;;;;;;32.88;11.88;;;2.00;78.80;;;;;;5078367;28;20086;-71
2021/11/23 07:37:07;;;;;;;30.50;12.02;;;2.00;78.70;;;;;;5078398;28;20499;-70
2021/11/23 07:39:34;;;;;;;25.70;10.93;;;2.00;78.70;;;;;;5078350;28;20025;-70
2021/11/23 07:41:59;;;;;;;28.83;10.95;;;2.00;78.70;;;;;;5078123;28;20099;-70
2021/11/23 07:44:25;;;;;;;29.83;11.48;;;2.00;78.70;;;;;;5078326;28;20056;-70
2021/11/23 07:46:51;;;;;;;25.98;10.52;;;2.00;78.60;;;;;;5078198;28;20025;-70
2021/11/23 07:49:17;;;;;;;30.23;9.15;;;2.00;78.70;;;;;;5078050;28;20016;-70
2021/11/23 07:51:44;;;;;;;19.17;8.15;;;2.00;78.90;;;;;;5078276;28;20098;-71
2021/11/23 07:54:14;;;;;;;27.45;10.02;;;2.00;78.90;;;;;;5077691;28;20025;-70
2021/11/23 07:56:40;;;;;;;29.27;10.10;;;2.00;78.90;;;;;;5078009;28;20016;-70
2021/11/23 07:59:06;;;;;;;22.65;7.72;;;2.00;79.00;;;;;;5078008;28;20100;-70
2021/11/23 08:01:32;;;;;;;21.08;8.35;;;2.00;79.00;;;;;;5078170;28;20055;-69
2021/11/23 08:03:57;;;;;;;20.90;7.63;;;2.10;79.10;;;;;;5077927;28;20024;-70
2021/11/23 08:06:23;;;;;;;21.67;8.15;;;2.10;79.10;;;;;;5077696;28;20021;-69
2021/11/23 08:08:49;;;;;;;20.35;9.55;;;2.10;78.90;;;;;;5077718;28;20035;-69
2021/11/23 08:11:15;;;;;;;19.48;6.95;;;2.20;79.00;;;;;;5077651;28;20027;-69
2021/11/23 08:13:41;;;;;;;16.35;6.78;;;2.20;79.30;;;;;;5073956;28;20032;-69
2021/11/23 08:16:07;;;;;;;16.52;6.00;;;2.30;78.70;;;;;;5066948;28;20032;-69
2021/11/23 08:18:34;;;;;;;12.90;5.88;;;2.30;78.50;;;;;;5077827;28;20021;-69
2021/11/23 08:21:01;;;;;;;14.52;5.60;;;2.30;78.50;;;;;;5078007;28;20035;-69
2021/11/23 08:23:27;;;;;;;13.77;5.97;;;2.40;78.30;;;;;;5076295;28;20115;-69
2021/11/23 08:25:54;;;;;;;17.58;6.35;;;2.40;78.30;;;;;;5077358;28;20035;-70
2021/11/23 08:28:26;;;;;;;14.77;5.47;;;2.40;78.30;;;;;;5077492;28;20024;-70
2021/11/23 08:30:52;;;;;;;15.98;5.57;;;2.50;78.10;;;;;;5077655;28;20475;-70
2021/11/23 08:33:18;;;;;;;17.55;6.97;;;2.50;78.10;;;;;;5076076;28;20025;-70
2021/11/23 08:35:44;;;;;;;15.15;5.60;;;2.60;78.10;;;;;;5077681;28;20099;-69
2021/11/23 08:38:11;;;;;;;14.23;6.90;;;2.60;78.10;;;;;;5077336;28;20044;-70
2021/11/23 08:40:38;;;;;;;15.48;6.88;;;2.60;78.20;;;;;;5077153;28;20074;-70
2021/11/23 08:43:08;;;;;;;14.68;6.13;;;2.70;78.20;;;;;;5077390;28;20043;-70
2021/11/23 08:45:34;;;;;;;14.48;5.80;;;2.70;78.20;;;;;;5076193;28;20040;-70
2021/11/23 08:48:00;;;;;;;11.27;5.13;;;2.70;78.00;;;;;;5077343;28;20017;-70
2021/11/23 08:50:27;;;;;;;12.20;5.68;;;2.80;78.10;;;;;;5077482;28;20497;-70
2021/11/23 08:52:53;;;;;;;14.20;5.20;;;2.80;78.00;;;;;;5077465;28;20012;-70
2021/11/23 08:55:19;;;;;;;13.65;5.65;;;2.90;78.10;;;;;;5077020;28;20025;-70
2021/11/23 08:57:44;;;;;;;12.20;5.50;;;3.00;78.20;;;;;;5077278;28;20031;-70
2021/11/23 09:00:16;;;;;;;20.98;6.18;;;3.10;78.30;;;;;;5077279;28;20025;-70
2021/11/23 09:02:44;;;;;;;17.02;6.25;;;3.30;78.20;;;;;;5064773;28;20024;-70
2021/11/23 09:05:11;;;;;;;14.70;6.60;;;3.50;77.90;;;;;;5076986;28;20556;-70
2021/11/23 09:07:38;;;;;;;15.43;6.10;;;3.70;77.50;;;;;;5083201;28;20021;-70
2021/11/23 09:10:05;;;;;;;14.50;7.20;;;3.90;77.30;;;;;;5082134;28;20491;-70
2021/11/23 09:12:31;;;;;;;9.27;4.63;;;4.00;77.10;;;;;;5084031;28;20032;-70
2021/11/23 09:14:57;;;;;;;14.68;5.20;;;4.10;76.30;;;;;;5070693;28;20029;-70
2021/11/23 09:17:23;;;;;;;16.05;6.68;;;4.20;76.40;;;;;;5083275;28;20100;-70
2021/11/23 09:19:49;;;;;;;10.60;5.20;;;4.30;76.20;;;;;;5083697;28;20033;-70
2021/11/23 09:22:15;;;;;;;11.13;4.68;;;4.40;76.60;;;;;;5082389;28;20036;-70
2021/11/23 09:24:41;;;;;;;11.43;4.40;;;4.60;76.50;;;;;;5083566;28;20039;-70
2021/11/23 09:27:07;;;;;;;20.02;5.72;;;4.90;76.50;;;;;;5083272;28;20024;-70
2021/11/23 09:29:33;;;;;;;9.07;5.10;;;5.30;75.30;;;;;;5083624;28;20029;-70
2021/11/23 09:31:59;;;;;;;18.60;6.80;;;5.70;74.10;;;;;;5070536;28;20031;-70
2021/11/23 09:34:25;;;;;;;16.60;6.80;;;6.10;72.50;;;;;;5083566;28;20063;-70
2021/11/23 09:36:52;;;;;;;13.60;6.60;;;6.30;72.10;;;;;;5083455;28;20020;-71
2021/11/23 09:39:18;;;;;;;12.23;6.40;;;6.70;71.50;;;;;;5083367;28;20541;-70
2021/11/23 09:41:43;;;;;;;11.77;5.43;;;7.00;70.10;;;;;;5083254;28;20029;-70
2021/11/23 09:44:09;;;;;;;9.90;5.03;;;7.30;70.00;;;;;;5083314;28;20024;-70
2021/11/23 09:46:38;;;;;;;10.93;5.43;;;7.60;70.00;;;;;;5083423;28;20132;-70
2021/11/23 09:49:05;;;;;;;8.98;4.63;;;7.90;70.30;;;;;;5083347;28;20567;-70
2021/11/23 09:51:33;;;;;;;12.73;4.70;;;8.30;69.10;;;;;;5083618;28;20020;-70
2021/11/23 09:54:00;;;;;;;10.25;3.80;;;8.70;68.00;;;;;;5083183;28;20017;-70
2021/11/23 09:56:27;;;;;;;7.50;3.78;;;9.20;68.00;;;;;;5083221;28;20103;-70
2021/11/23 09:58:56;;;;;;;10.55;3.63;;;9.70;65.40;;;;;;5083169;28;20025;-70
2021/11/23 10:01:29;;;;;;;12.57;3.35;;;10.00;64.80;;;;;;5083468;28;20025;-70
2021/11/23 10:03:56;;;;;;;9.45;4.40;;;10.50;63.30;;;;;;5083217;28;20023;-70
2021/11/23 10:06:25;;;;;;;8.93;3.58;;;10.80;63.60;;;;;;5083257;28;20394;-70
2021/11/23 10:08:54;;;;;;;11.18;3.75;;;11.20;63.90;;;;;;5083120;28;20501;-70
2021/11/23 10:11:29;;;;;;;8.27;3.38;;;11.60;63.80;;;;;;5083051;28;20406;-71
2021/11/23 10:14:01;;;;;;;9.35;2.97;;;12.00;62.90;;;;;;5078706;28;20058;-70
2021/11/23 10:16:42;;;;;;;8.48;3.40;;;12.50;59.10;;;;;;5075166;28;20021;-70
2021/11/23 10:19:10;;;;;;;9.20;2.95;;;12.80;60.90;;;;;;5067706;28;20017;-71
2021/11/23 10:21:51;;;;;;;8.23;3.38;;;13.10;57.70;;;;;;5079857;28;20024;-70
2021/11/23 10:24:18;;;;;;;8.63;3.28;;;13.30;58.30;;;;;;5069605;28;20553;-71
2021/11/23 10:26:44;;;;;;;9.85;3.40;;;13.60;57.90;;;;;;5079354;28;20029;-71
2021/11/23 10:29:10;;;;;;;7.47;2.78;;;13.80;57.40;;;;;;5079807;28;20021;-71
2021/11/23 10:31:42;;;;;;;6.78;2.78;;;13.90;57.80;;;;;;5079760;28;20019;-70
2021/11/23 10:34:12;;;;;;;7.90;3.17;;;14.10;58.10;;;;;;5071688;28;20029;-70
2021/11/23 10:36:41;;;;;;;7.25;2.88;;;14.40;57.90;;;;;;5079615;28;20024;-70
2021/11/23 10:39:12;;;;;;;6.32;2.20;;;14.60;57.30;;;;;;5079826;28;20040;-71
2021/11/23 10:41:39;;;;;;;5.18;2.70;;;14.80;57.90;;;;;;5066517;28;20033;-70
2021/11/23 10:44:15;;;;;;;6.07;2.85;;;15.00;57.20;;;;;;5079523;28;20024;-71
2021/11/23 10:46:41;;;;;;;7.80;2.60;;;15.30;56.10;;;;;;5079620;28;20025;-71
2021/11/23 10:49:07;;;;;;;10.48;3.10;;;15.40;57.60;;;;;;5079469;28;20044;-71
2021/11/23 10:51:40;;;;;;;7.47;3.00;;;15.60;55.40;;;;;;5079556;28;20074;-71
2021/11/23 10:54:17;;;;;;;6.60;2.97;;;15.80;54.00;;;;;;5079102;28;20460;-70
2021/11/23 10:56:59;;;;;;;6.80;2.90;;;15.90;54.30;;;;;;5079149;28;20036;-71
2021/11/23 10:59:26;;;;;;;7.20;2.85;;;16.00;53.90;;;;;;5066192;28;20036;-71
2021/11/23 11:01:52;;;;;;;7.45;2.60;;;16.10;53.10;;;;;;5077950;28;20051;-71
2021/11/23 11:04:19;;;;;;;6.22;2.17;;;16.20;51.90;;;;;;5079518;28;20103;-71
2021/11/23 11:06:49;;;;;;;6.07;2.30;;;16.20;51.90;;;;;;5079224;28;20031;-71
2021/11/23 11:09:17;;;;;;;6.35;2.55;;;16.30;53.60;;;;;;5079149;28;20012;-71
2021/11/23 11:11:43;;;;;;;4.85;2.30;;;16.50;53.80;;;;;;5078796;28;20052;-71
2021/11/23 11:14:12;;;;;;;6.03;2.70;;;16.60;52.10;;;;;;5072658;28;20017;-72
2021/11/23 11:16:39;;;;;;;7.68;2.63;;;16.70;52.90;;;;;;5072509;28;20042;-71
2021/11/23 11:19:14;;;;;;;5.75;1.95;;;16.80;52.50;;;;;;5079151;28;20016;-71
2021/11/23 11:22:03;;;;;;;7.53;2.30;;;16.90;49.20;;;;;;5078422;28;20086;-71
2021/11/23 11:24:49;;;;;;;6.60;2.03;;;16.90;51.50;;;;;;5070514;28;20017;-71
2021/11/23 11:27:46;;;;;;;7.97;2.13;;;17.00;50.20;;;;;;5078616;28;20036;-71
2021/11/23 11:30:20;;;;;;;5.80;2.10;;;17.10;50.00;;;;;;5068775;28;20050;-71
2021/11/23 11:32:48;;;;;;;10.50;2.80;;;17.10;50.40;;;;;;5078681;28;20112;-71
2021/11/23 11:35:33;;;;;;;8.10;2.35;;;17.10;50.10;;;;;;5065472;28;20024;-71
2021/11/23 11:38:02;;;;;;;6.50;2.47;;;17.20;51.60;;;;;;5078156;28;20083;-71
2021/11/23 11:40:39;;;;;;;6.63;2.13;;;17.20;50.70;;;;;;5078095;28;20027;-71
2021/11/23 11:43:07;;;;;;;7.57;2.65;;;17.30;50.60;;;;;;5078391;28;20037;-71
2021/11/23 11:45:43;;;;;;;9.77;2.80;;;17.30;50.80;;;;;;5078334;28;20503;-71
2021/11/23 11:48:30;;;;;;;8.85;2.72;;;17.40;51.20;;;;;;5078394;28;20054;-71
2021/11/23 11:51:18;;;;;;;4.88;2.22;;;17.40;49.60;;;;;;5078004;28;20023;-72
2021/11/23 11:53:46;;;;;;;7.43;3.08;;;17.40;49.50;;;;;;5077980;28;20573;-71
2021/11/23 11:56:14;;;;;;;7.75;2.70;;;17.40;49.90;;;;;;5077917;28;20023;-71
2021/11/23 11:58:46;;;;;;;7.45;2.95;;;17.40;50.30;;;;;;5078228;28;20023;-71
2021/11/23 12:01:33;;;;;;;6.10;2.03;;;17.50;50.10;;;;;;5078125;28;20035;-71
2021/11/23 12:04:03;;;;;;;8.23;2.53;;;17.40;47.90;;;;;;5077832;28;20037;-71
2021/11/23 12:06:54;;;;;;;8.27;2.45;;;17.30;46.90;;;;;;5076928;28;20024;-69
2021/11/23 12:09:58;;;;;;;5.20;1.63;;;17.30;48.10;;;;;;5078159;28;20032;-72
2021/11/23 12:12:42;;;;;;;4.82;2.13;;;17.20;46.80;;;;;;5055925;28;20091;-70
2021/11/23 12:15:17;;;;;;;7.78;1.75;;;17.20;46.80;;;;;;5060223;28;20530;-69
2021/11/23 12:18:06;;;;;;;5.32;1.70;;;17.10;47.40;;;;;;5077894;28;20365;-69
2021/11/23 12:20:56;;;;;;;8.15;2.20;;;17.00;47.10;;;;;;5077844;28;20363;-70
2021/11/23 12:23:32;;;;;;;5.68;1.77;;;16.90;47.60;;;;;;5076560;28;20021;-69
2021/11/23 12:26:00;;;;;;;10.18;2.10;;;16.90;49.20;;;;;;5077458;28;20066;-70
2021/11/23 12:28:29;;;;;;;7.13;2.63;;;16.90;47.90;;;;;;5077433;28;20111;-69
2021/11/23 12:30:56;;;;;;;7.72;1.98;;;16.80;45.40;;;;;;5077723;28;20012;-69
2021/11/23 12:33:23;;;;;;;5.35;1.80;;;16.80;46.80;;;;;;5077547;28;20395;-70
2021/11/23 12:35:49;;;;;;;5.07;2.10;;;16.80;47.60;;;;;;5077911;28;20031;-70
2021/11/23 12:38:34;;;;;;;5.32;2.08;;;16.80;46.10;;;;;;5076107;28;20052;-71
2021/11/23 12:41:29;;;;;;;7.18;2.25;;;16.70;46.00;;;;;;5076238;28;20027;-70
2021/11/23 12:43:55;;;;;;;4.85;2.08;;;16.60;45.30;;;;;;5072834;28;20048;-70
2021/11/23 12:46:25;;;;;;;8.43;2.17;;;16.50;44.60;;;;;;5076090;28;20028;-70
2021/11/23 12:48:53;;;;;;;6.88;1.90;;;16.50;46.10;;;;;;5077497;28;20021;-70